Sharp, Louisiana
Current Conditions -  °F | °C
As of 2:53 PM on Friday 19 Dec 2014 (Local Time) from KAEX Reporting Station
Light Rain Light Rain  
Wind Chill: 50°   Ceiling: 800
Heat Index: 50°   Visibility: 7mi
Dew Point: 49°   Wind: 7mph
Humidity: 96%   Direction: 40°NE
Pressure: 30.09"   Gusts: NA
Location:  31.4254°N, 92.7765°W
Report Text: KAEX 192053Z 04006KT 7SM -RA OVC008 10/09 A3009 RMK AO2 CIG 006V012 SLP194 P0004 60015 T01000094 55008
Loading
Personal Weather Stations






























Interactive Weather Map New forecast layout! Learn more

10-Day Weather Forecast

Advertisements
Track Severe Weather on mobile